sensor_id;sensor_type;location;lat;lon;timestamp;P1;durP1;ratioP1;P2;durP2;ratioP2
40533;SDS011;26233;51.894;10.192;2022-10-26T00:00:22;3.05;;;1.40;;
40533;SDS011;26233;51.894;10.192;2022-10-26T00:02:52;2.05;;;1.35;;
40533;SDS011;26233;51.894;10.192;2022-10-26T00:05:21;2.30;;;1.50;;
40533;SDS011;26233;51.894;10.192;2022-10-26T00:07:48;3.20;;;1.48;;
40533;SDS011;26233;51.894;10.192;2022-10-26T00:10:15;1.80;;;1.20;;
40533;SDS011;26233;51.894;10.192;2022-10-26T00:12:46;1.98;;;1.40;;
40533;SDS011;26233;51.894;10.192;2022-10-26T00:15:15;3.47;;;1.38;;
40533;SDS011;26233;51.894;10.192;2022-10-26T00:17:43;2.17;;;1.58;;
40533;SDS011;26233;51.894;10.192;2022-10-26T00:20:10;1.70;;;1.30;;
40533;SDS011;26233;51.894;10.192;2022-10-26T00:22:39;1.58;;;1.48;;
40533;SDS011;26233;51.894;10.192;2022-10-26T00:25:06;3.33;;;1.55;;
40533;SDS011;26233;51.894;10.192;2022-10-26T00:27:34;1.35;;;1.20;;
40533;SDS011;26233;51.894;10.192;2022-10-26T00:30:02;2.95;;;1.40;;
40533;SDS011;26233;51.894;10.192;2022-10-26T00:32:32;1.90;;;1.30;;
40533;SDS011;26233;51.894;10.192;2022-10-26T00:35:00;1.38;;;1.27;;
40533;SDS011;26233;51.894;10.192;2022-10-26T00:37:27;1.65;;;1.42;;
40533;SDS011;26233;51.894;10.192;2022-10-26T00:39:55;2.78;;;1.27;;
40533;SDS011;26233;51.894;10.192;2022-10-26T00:42:22;1.60;;;1.30;;
40533;SDS011;26233;51.894;10.192;2022-10-26T00:44:56;2.78;;;1.40;;
40533;SDS011;26233;51.894;10.192;2022-10-26T00:50:11;1.27;;;1.17;;
40533;SDS011;26233;51.894;10.192;2022-10-26T00:52:43;2.95;;;1.45;;
40533;SDS011;26233;51.894;10.192;2022-10-26T00:55:11;1.80;;;1.42;;
40533;SDS011;26233;51.894;10.192;2022-10-26T00:57:39;2.25;;;1.65;;
40533;SDS011;26233;51.894;10.192;2022-10-26T01:00:07;1.70;;;1.60;;
40533;SDS011;26233;51.894;10.192;2022-10-26T01:02:35;1.88;;;1.48;;
40533;SDS011;26233;51.894;10.192;2022-10-26T01:05:02;2.28;;;1.40;;
40533;SDS011;26233;51.894;10.192;2022-10-26T01:07:31;3.20;;;1.40;;
40533;SDS011;26233;51.894;10.192;2022-10-26T01:09:59;2.13;;;1.52;;
40533;SDS011;26233;51.894;10.192;2022-10-26T01:12:28;2.80;;;1.63;;
40533;SDS011;26233;51.894;10.192;2022-10-26T01:14:55;6.55;;;1.63;;
40533;SDS011;26233;51.894;10.192;2022-10-26T01:17:32;2.85;;;1.60;;
40533;SDS011;26233;51.894;10.192;2022-10-26T01:20:25;3.30;;;1.65;;
40533;SDS011;26233;51.894;10.192;2022-10-26T01:23:09;2.20;;;1.60;;
40533;SDS011;26233;51.894;10.192;2022-10-26T01:25:52;2.45;;;1.48;;
40533;SDS011;26233;51.894;10.192;2022-10-26T01:28:49;1.45;;;1.35;;
40533;SDS011;26233;51.894;10.192;2022-10-26T01:31:40;2.40;;;1.50;;
40533;SDS011;26233;51.894;10.192;2022-10-26T01:34:10;3.65;;;1.67;;
40533;SDS011;26233;51.894;10.192;2022-10-26T01:36:41;1.60;;;1.50;;
40533;SDS011;26233;51.894;10.192;2022-10-26T01:39:13;2.35;;;1.55;;
40533;SDS011;26233;51.894;10.192;2022-10-26T01:41:46;2.47;;;1.40;;
40533;SDS011;26233;51.894;10.192;2022-10-26T01:44:16;1.70;;;1.30;;
40533;SDS011;26233;51.894;10.192;2022-10-26T01:46:50;3.50;;;1.40;;
40533;SDS011;26233;51.894;10.192;2022-10-26T01:49:20;2.33;;;1.35;;
40533;SDS011;26233;51.894;10.192;2022-10-26T01:51:51;2.28;;;1.30;;
40533;SDS011;26233;51.894;10.192;2022-10-26T01:54:18;2.03;;;1.27;;
40533;SDS011;26233;51.894;10.192;2022-10-26T01:56:45;2.28;;;1.40;;
40533;SDS011;26233;51.894;10.192;2022-10-26T01:59:25;3.63;;;1.35;;
40533;SDS011;26233;51.894;10.192;2022-10-26T02:05:35;1.30;;;1.20;;
40533;SDS011;26233;51.894;10.192;2022-10-26T02:08:15;2.33;;;1.40;;
40533;SDS011;26233;51.894;10.192;2022-10-26T02:10:55;1.92;;;1.50;;
40533;SDS011;26233;51.894;10.192;2022-10-26T02:13:37;2.42;;;1.38;;
40533;SDS011;26233;51.894;10.192;2022-10-26T02:16:15;2.28;;;1.13;;
40533;SDS011;26233;51.894;10.192;2022-10-26T02:18:51;1.50;;;1.20;;
40533;SDS011;26233;51.894;10.192;2022-10-26T02:21:28;1.58;;;1.15;;
40533;SDS011;26233;51.894;10.192;2022-10-26T02:24:02;2.25;;;1.40;;
40533;SDS011;26233;51.894;10.192;2022-10-26T02:26:33;2.17;;;1.20;;
40533;SDS011;26233;51.894;10.192;2022-10-26T02:29:04;1.90;;;1.20;;
40533;SDS011;26233;51.894;10.192;2022-10-26T02:31:35;1.35;;;1.20;;
40533;SDS011;26233;51.894;10.192;2022-10-26T02:34:06;2.60;;;1.10;;
40533;SDS011;26233;51.894;10.192;2022-10-26T02:36:36;1.80;;;1.15;;
40533;SDS011;26233;51.894;10.192;2022-10-26T02:39:08;1.30;;;1.20;;
40533;SDS011;26233;51.894;10.192;2022-10-26T02:41:38;1.35;;;1.15;;
40533;SDS011;26233;51.894;10.192;2022-10-26T02:44:10;2.35;;;1.10;;
40533;SDS011;26233;51.894;10.192;2022-10-26T02:46:44;1.88;;;1.38;;
40533;SDS011;26233;51.894;10.192;2022-10-26T02:49:12;2.00;;;1.00;;
40533;SDS011;26233;51.894;10.192;2022-10-26T02:51:41;1.17;;;1.05;;
40533;SDS011;26233;51.894;10.192;2022-10-26T02:54:13;2.00;;;0.90;;
40533;SDS011;26233;51.894;10.192;2022-10-26T02:56:47;3.85;;;1.20;;
40533;SDS011;26233;51.894;10.192;2022-10-26T02:59:19;3.60;;;1.20;;
40533;SDS011;26233;51.894;10.192;2022-10-26T03:01:49;1.42;;;1.15;;
40533;SDS011;26233;51.894;10.192;2022-10-26T03:04:18;2.33;;;1.00;;
40533;SDS011;26233;51.894;10.192;2022-10-26T03:06:50;1.50;;;1.00;;
40533;SDS011;26233;51.894;10.192;2022-10-26T03:09:18;1.05;;;0.95;;
40533;SDS011;26233;51.894;10.192;2022-10-26T03:11:45;2.30;;;1.08;;
40533;SDS011;26233;51.894;10.192;2022-10-26T03:14:12;2.75;;;1.40;;
40533;SDS011;26233;51.894;10.192;2022-10-26T03:16:39;1.08;;;0.77;;
40533;SDS011;26233;51.894;10.192;2022-10-26T03:19:06;1.35;;;1.15;;
40533;SDS011;26233;51.894;10.192;2022-10-26T03:21:35;1.50;;;1.15;;
40533;SDS011;26233;51.894;10.192;2022-10-26T03:24:02;1.83;;;0.90;;
40533;SDS011;26233;51.894;10.192;2022-10-26T03:26:29;1.35;;;1.00;;
40533;SDS011;26233;51.894;10.192;2022-10-26T03:28:56;1.88;;;1.15;;
40533;SDS011;26233;51.894;10.192;2022-10-26T03:31:23;2.85;;;1.30;;
40533;SDS011;26233;51.894;10.192;2022-10-26T03:33:50;2.55;;;1.20;;
40533;SDS011;26233;51.894;10.192;2022-10-26T03:36:17;1.38;;;1.00;;
40533;SDS011;26233;51.894;10.192;2022-10-26T03:38:45;1.27;;;1.10;;
40533;SDS011;26233;51.894;10.192;2022-10-26T03:41:12;2.22;;;1.20;;
40533;SDS011;26233;51.894;10.192;2022-10-26T03:43:39;1.08;;;0.93;;
40533;SDS011;26233;51.894;10.192;2022-10-26T03:46:06;2.25;;;1.20;;
40533;SDS011;26233;51.894;10.192;2022-10-26T03:48:33;1.73;;;1.27;;
40533;SDS011;26233;51.894;10.192;2022-10-26T03:51:00;2.03;;;1.40;;
40533;SDS011;26233;51.894;10.192;2022-10-26T03:53:27;1.90;;;0.98;;
40533;SDS011;26233;51.894;10.192;2022-10-26T03:55:56;3.20;;;1.48;;
40533;SDS011;26233;51.894;10.192;2022-10-26T03:58:23;4.20;;;1.42;;
40533;SDS011;26233;51.894;10.192;2022-10-26T04:00:50;3.60;;;1.40;;
40533;SDS011;26233;51.894;10.192;2022-10-26T04:03:17;2.13;;;1.40;;
40533;SDS011;26233;51.894;10.192;2022-10-26T04:05:44;1.88;;;1.15;;
40533;SDS011;26233;51.894;10.192;2022-10-26T04:08:11;2.17;;;1.10;;
40533;SDS011;26233;51.894;10.192;2022-10-26T04:10:38;2.38;;;1.05;;
40533;SDS011;26233;51.894;10.192;2022-10-26T04:13:07;2.25;;;1.08;;
40533;SDS011;26233;51.894;10.192;2022-10-26T04:15:35;1.70;;;1.10;;
40533;SDS011;26233;51.894;10.192;2022-10-26T04:18:02;1.98;;;1.20;;
40533;SDS011;26233;51.894;10.192;2022-10-26T04:20:29;1.83;;;1.20;;
40533;SDS011;26233;51.894;10.192;2022-10-26T04:22:58;1.70;;;1.20;;
40533;SDS011;26233;51.894;10.192;2022-10-26T04:25:27;1.35;;;1.08;;
40533;SDS011;26233;51.894;10.192;2022-10-26T04:27:55;2.55;;;1.05;;
40533;SDS011;26233;51.894;10.192;2022-10-26T04:30:23;2.45;;;1.17;;
40533;SDS011;26233;51.894;10.192;2022-10-26T04:32:51;2.90;;;1.00;;
40533;SDS011;26233;51.894;10.192;2022-10-26T04:35:18;2.22;;;0.95;;
40533;SDS011;26233;51.894;10.192;2022-10-26T04:37:45;1.45;;;0.98;;
40533;SDS011;26233;51.894;10.192;2022-10-26T04:40:12;1.48;;;1.00;;
40533;SDS011;26233;51.894;10.192;2022-10-26T04:42:40;1.38;;;1.00;;
40533;SDS011;26233;51.894;10.192;2022-10-26T04:45:08;2.28;;;1.10;;
40533;SDS011;26233;51.894;10.192;2022-10-26T04:47:38;1.15;;;1.05;;
40533;SDS011;26233;51.894;10.192;2022-10-26T04:50:06;1.38;;;1.20;;
40533;SDS011;26233;51.894;10.192;2022-10-26T04:52:35;2.58;;;1.25;;
40533;SDS011;26233;51.894;10.192;2022-10-26T04:55:03;1.02;;;0.80;;
40533;SDS011;26233;51.894;10.192;2022-10-26T04:57:31;2.33;;;0.98;;
40533;SDS011;26233;51.894;10.192;2022-10-26T04:59:59;4.15;;;1.25;;
40533;SDS011;26233;51.894;10.192;2022-10-26T05:02:27;2.50;;;1.00;;
40533;SDS011;26233;51.894;10.192;2022-10-26T05:04:56;1.63;;;1.00;;
40533;SDS011;26233;51.894;10.192;2022-10-26T05:07:22;6.25;;;1.20;;
40533;SDS011;26233;51.894;10.192;2022-10-26T05:09:49;2.20;;;0.93;;
40533;SDS011;26233;51.894;10.192;2022-10-26T05:12:16;1.38;;;0.93;;
40533;SDS011;26233;51.894;10.192;2022-10-26T05:14:43;2.47;;;1.25;;
40533;SDS011;26233;51.894;10.192;2022-10-26T05:17:11;2.55;;;0.90;;
40533;SDS011;26233;51.894;10.192;2022-10-26T05:19:38;1.45;;;1.23;;
40533;SDS011;26233;51.894;10.192;2022-10-26T05:22:06;2.22;;;1.10;;
40533;SDS011;26233;51.894;10.192;2022-10-26T05:24:33;2.45;;;1.20;;
40533;SDS011;26233;51.894;10.192;2022-10-26T05:27:00;1.27;;;1.05;;
40533;SDS011;26233;51.894;10.192;2022-10-26T05:29:28;1.95;;;1.10;;
40533;SDS011;26233;51.894;10.192;2022-10-26T05:31:55;1.42;;;0.90;;
40533;SDS011;26233;51.894;10.192;2022-10-26T05:34:22;2.65;;;1.13;;
40533;SDS011;26233;51.894;10.192;2022-10-26T05:36:51;2.00;;;0.98;;
40533;SDS011;26233;51.894;10.192;2022-10-26T05:39:20;3.13;;;1.05;;
40533;SDS011;26233;51.894;10.192;2022-10-26T05:41:47;2.10;;;1.10;;
40533;SDS011;26233;51.894;10.192;2022-10-26T05:44:14;1.70;;;0.95;;
40533;SDS011;26233;51.894;10.192;2022-10-26T05:46:41;1.25;;;0.90;;
40533;SDS011;26233;51.894;10.192;2022-10-26T05:49:08;1.92;;;1.27;;
40533;SDS011;26233;51.894;10.192;2022-10-26T05:51:35;1.20;;;0.88;;
40533;SDS011;26233;51.894;10.192;2022-10-26T05:54:03;2.55;;;0.80;;
40533;SDS011;26233;51.894;10.192;2022-10-26T05:56:34;5.82;;;1.02;;
40533;SDS011;26233;51.894;10.192;2022-10-26T05:59:05;1.92;;;1.08;;
40533;SDS011;26233;51.894;10.192;2022-10-26T06:01:43;2.30;;;0.90;;
40533;SDS011;26233;51.894;10.192;2022-10-26T06:04:28;2.10;;;0.98;;
40533;SDS011;26233;51.894;10.192;2022-10-26T06:07:03;3.00;;;1.15;;
40533;SDS011;26233;51.894;10.192;2022-10-26T06:09:36;2.60;;;1.02;;
40533;SDS011;26233;51.894;10.192;2022-10-26T06:12:06;1.30;;;0.90;;
40533;SDS011;26233;51.894;10.192;2022-10-26T06:14:35;1.23;;;1.00;;
40533;SDS011;26233;51.894;10.192;2022-10-26T06:17:08;2.50;;;1.23;;
40533;SDS011;26233;51.894;10.192;2022-10-26T06:20:00;1.77;;;1.00;;
40533;SDS011;26233;51.894;10.192;2022-10-26T06:22:52;1.88;;;1.05;;
40533;SDS011;26233;51.894;10.192;2022-10-26T06:25:35;2.05;;;1.02;;
40533;SDS011;26233;51.894;10.192;2022-10-26T06:28:18;3.92;;;1.10;;
40533;SDS011;26233;51.894;10.192;2022-10-26T06:30:56;1.88;;;0.95;;
40533;SDS011;26233;51.894;10.192;2022-10-26T06:33:23;1.77;;;1.20;;
40533;SDS011;26233;51.894;10.192;2022-10-26T06:35:54;1.92;;;1.25;;
40533;SDS011;26233;51.894;10.192;2022-10-26T06:38:30;1.23;;;1.10;;
40533;SDS011;26233;51.894;10.192;2022-10-26T06:41:00;1.05;;;0.82;;
40533;SDS011;26233;51.894;10.192;2022-10-26T06:43:30;2.47;;;1.25;;
40533;SDS011;26233;51.894;10.192;2022-10-26T06:46:01;2.55;;;1.02;;
40533;SDS011;26233;51.894;10.192;2022-10-26T06:48:42;2.75;;;1.45;;
40533;SDS011;26233;51.894;10.192;2022-10-26T06:51:15;1.30;;;1.10;;
40533;SDS011;26233;51.894;10.192;2022-10-26T06:53:45;1.92;;;1.17;;
40533;SDS011;26233;51.894;10.192;2022-10-26T06:56:18;2.50;;;1.13;;
40533;SDS011;26233;51.894;10.192;2022-10-26T06:58:49;2.80;;;1.20;;
40533;SDS011;26233;51.894;10.192;2022-10-26T07:01:19;1.55;;;1.17;;
40533;SDS011;26233;51.894;10.192;2022-10-26T07:03:47;1.33;;;1.20;;
40533;SDS011;26233;51.894;10.192;2022-10-26T07:06:13;2.15;;;1.23;;
40533;SDS011;26233;51.894;10.192;2022-10-26T07:08:40;1.13;;;1.02;;
40533;SDS011;26233;51.894;10.192;2022-10-26T07:11:07;1.90;;;1.23;;
40533;SDS011;26233;51.894;10.192;2022-10-26T07:13:34;1.02;;;0.90;;
40533;SDS011;26233;51.894;10.192;2022-10-26T07:16:03;1.95;;;0.98;;
40533;SDS011;26233;51.894;10.192;2022-10-26T07:18:31;1.35;;;1.00;;
40533;SDS011;26233;51.894;10.192;2022-10-26T07:20:58;3.50;;;1.27;;
40533;SDS011;26233;51.894;10.192;2022-10-26T07:23:25;2.95;;;1.35;;
40533;SDS011;26233;51.894;10.192;2022-10-26T07:25:52;1.70;;;1.02;;
40533;SDS011;26233;51.894;10.192;2022-10-26T07:28:19;4.38;;;1.25;;
40533;SDS011;26233;51.894;10.192;2022-10-26T07:30:46;1.48;;;1.10;;
40533;SDS011;26233;51.894;10.192;2022-10-26T07:33:14;1.10;;;1.00;;
40533;SDS011;26233;51.894;10.192;2022-10-26T07:35:41;2.58;;;1.15;;
40533;SDS011;26233;51.894;10.192;2022-10-26T07:38:08;1.10;;;1.00;;
40533;SDS011;26233;51.894;10.192;2022-10-26T07:40:38;1.73;;;1.00;;
40533;SDS011;26233;51.894;10.192;2022-10-26T07:43:05;2.25;;;1.08;;
40533;SDS011;26233;51.894;10.192;2022-10-26T07:45:32;1.65;;;1.13;;
40533;SDS011;26233;51.894;10.192;2022-10-26T07:48:00;1.95;;;1.20;;
40533;SDS011;26233;51.894;10.192;2022-10-26T07:50:29;4.20;;;1.17;;
40533;SDS011;26233;51.894;10.192;2022-10-26T07:52:56;2.45;;;1.10;;
40533;SDS011;26233;51.894;10.192;2022-10-26T07:55:24;2.05;;;1.13;;
40533;SDS011;26233;51.894;10.192;2022-10-26T07:57:53;1.90;;;1.10;;
40533;SDS011;26233;51.894;10.192;2022-10-26T08:00:20;1.30;;;1.05;;
40533;SDS011;26233;51.894;10.192;2022-10-26T08:02:47;2.20;;;1.10;;
40533;SDS011;26233;51.894;10.192;2022-10-26T08:05:14;1.27;;;0.90;;
40533;SDS011;26233;51.894;10.192;2022-10-26T08:07:43;1.45;;;0.98;;
40533;SDS011;26233;51.894;10.192;2022-10-26T08:10:11;1.55;;;1.10;;
40533;SDS011;26233;51.894;10.192;2022-10-26T08:12:39;3.72;;;1.23;;
40533;SDS011;26233;51.894;10.192;2022-10-26T08:15:08;1.98;;;1.38;;
40533;SDS011;26233;51.894;10.192;2022-10-26T08:17:35;1.95;;;1.10;;
40533;SDS011;26233;51.894;10.192;2022-10-26T08:20:03;1.65;;;1.10;;
40533;SDS011;26233;51.894;10.192;2022-10-26T08:22:31;2.50;;;0.85;;
40533;SDS011;26233;51.894;10.192;2022-10-26T08:24:59;4.50;;;1.13;;
40533;SDS011;26233;51.894;10.192;2022-10-26T08:27:26;2.08;;;1.10;;
40533;SDS011;26233;51.894;10.192;2022-10-26T08:29:53;1.95;;;1.00;;
40533;SDS011;26233;51.894;10.192;2022-10-26T08:32:20;1.23;;;1.00;;
40533;SDS011;26233;51.894;10.192;2022-10-26T08:34:47;1.08;;;0.98;;
40533;SDS011;26233;51.894;10.192;2022-10-26T08:37:14;2.15;;;1.25;;
40533;SDS011;26233;51.894;10.192;2022-10-26T08:39:41;1.08;;;0.90;;
40533;SDS011;26233;51.894;10.192;2022-10-26T08:42:13;2.22;;;1.08;;
40533;SDS011;26233;51.894;10.192;2022-10-26T08:44:45;1.77;;;1.00;;
40533;SDS011;26233;51.894;10.192;2022-10-26T08:47:15;2.78;;;0.93;;
40533;SDS011;26233;51.894;10.192;2022-10-26T08:49:48;1.90;;;1.20;;
40533;SDS011;26233;51.894;10.192;2022-10-26T08:52:21;1.27;;;1.00;;
40533;SDS011;26233;51.894;10.192;2022-10-26T08:54:52;1.15;;;1.05;;
40533;SDS011;26233;51.894;10.192;2022-10-26T08:57:24;3.60;;;1.33;;
40533;SDS011;26233;51.894;10.192;2022-10-26T08:59:56;1.70;;;1.10;;
40533;SDS011;26233;51.894;10.192;2022-10-26T09:02:27;1.88;;;1.17;;
40533;SDS011;26233;51.894;10.192;2022-10-26T09:04:55;1.33;;;1.23;;
40533;SDS011;26233;51.894;10.192;2022-10-26T09:07:28;1.33;;;1.17;;
40533;SDS011;26233;51.894;10.192;2022-10-26T09:10:15;1.73;;;1.20;;
40533;SDS011;26233;51.894;10.192;2022-10-26T09:13:07;1.33;;;0.82;;
40533;SDS011;26233;51.894;10.192;2022-10-26T09:15:51;1.52;;;1.08;;
40533;SDS011;26233;51.894;10.192;2022-10-26T09:18:30;0.85;;;0.85;;
40533;SDS011;26233;51.894;10.192;2022-10-26T09:21:26;1.48;;;0.93;;
40533;SDS011;26233;51.894;10.192;2022-10-26T09:24:08;2.03;;;1.20;;
40533;SDS011;26233;51.894;10.192;2022-10-26T09:26:43;1.10;;;1.00;;
40533;SDS011;26233;51.894;10.192;2022-10-26T09:29:22;1.00;;;0.90;;
40533;SDS011;26233;51.894;10.192;2022-10-26T09:31:53;1.88;;;1.00;;
40533;SDS011;26233;51.894;10.192;2022-10-26T09:34:26;2.15;;;1.20;;
40533;SDS011;26233;51.894;10.192;2022-10-26T09:36:57;0.85;;;0.85;;
40533;SDS011;26233;51.894;10.192;2022-10-26T09:39:30;1.88;;;1.00;;
40533;SDS011;26233;51.894;10.192;2022-10-26T09:42:06;1.38;;;1.00;;
40533;SDS011;26233;51.894;10.192;2022-10-26T09:44:46;2.30;;;1.25;;
40533;SDS011;26233;51.894;10.192;2022-10-26T09:47:22;1.60;;;0.98;;
40533;SDS011;26233;51.894;10.192;2022-10-26T09:49:59;1.30;;;1.02;;
40533;SDS011;26233;51.894;10.192;2022-10-26T09:52:38;1.85;;;1.10;;
40533;SDS011;26233;51.894;10.192;2022-10-26T09:55:09;1.15;;;1.05;;
40533;SDS011;26233;51.894;10.192;2022-10-26T09:57:38;0.80;;;0.80;;
40533;SDS011;26233;51.894;10.192;2022-10-26T10:00:12;1.02;;;0.90;;
40533;SDS011;26233;51.894;10.192;2022-10-26T10:02:41;1.00;;;0.90;;
40533;SDS011;26233;51.894;10.192;2022-10-26T10:05:22;0.90;;;0.80;;
40533;SDS011;26233;51.894;10.192;2022-10-26T10:08:12;2.42;;;1.05;;
40533;SDS011;26233;51.894;10.192;2022-10-26T10:10:52;1.58;;;1.00;;
40533;SDS011;26233;51.894;10.192;2022-10-26T10:13:22;1.20;;;1.10;;
40533;SDS011;26233;51.894;10.192;2022-10-26T10:15:53;1.55;;;1.17;;
40533;SDS011;26233;51.894;10.192;2022-10-26T10:18:26;1.65;;;1.25;;
40533;SDS011;26233;51.894;10.192;2022-10-26T10:20:55;1.30;;;1.20;;
40533;SDS011;26233;51.894;10.192;2022-10-26T10:23:25;3.00;;;1.30;;
40533;SDS011;26233;51.894;10.192;2022-10-26T10:25:59;1.52;;;1.05;;
40533;SDS011;26233;51.894;10.192;2022-10-26T10:28:30;1.83;;;1.30;;
40533;SDS011;26233;51.894;10.192;2022-10-26T10:31:00;1.55;;;1.10;;
40533;SDS011;26233;51.894;10.192;2022-10-26T10:33:33;1.95;;;1.27;;
40533;SDS011;26233;51.894;10.192;2022-10-26T10:36:03;1.40;;;1.30;;
40533;SDS011;26233;51.894;10.192;2022-10-26T10:38:41;1.98;;;1.20;;
40533;SDS011;26233;51.894;10.192;2022-10-26T10:41:17;1.40;;;1.10;;
40533;SDS011;26233;51.894;10.192;2022-10-26T10:43:52;2.35;;;1.40;;
40533;SDS011;26233;51.894;10.192;2022-10-26T10:46:25;3.85;;;1.40;;
40533;SDS011;26233;51.894;10.192;2022-10-26T10:48:54;2.08;;;1.20;;
40533;SDS011;26233;51.894;10.192;2022-10-26T10:51:29;2.20;;;1.10;;
40533;SDS011;26233;51.894;10.192;2022-10-26T10:54:02;1.30;;;1.20;;
40533;SDS011;26233;51.894;10.192;2022-10-26T10:56:37;1.40;;;1.13;;
40533;SDS011;26233;51.894;10.192;2022-10-26T10:59:25;1.45;;;1.10;;
40533;SDS011;26233;51.894;10.192;2022-10-26T11:02:29;1.83;;;1.00;;
40533;SDS011;26233;51.894;10.192;2022-10-26T11:05:21;1.55;;;0.98;;
40533;SDS011;26233;51.894;10.192;2022-10-26T11:08:02;2.30;;;1.00;;
40533;SDS011;26233;51.894;10.192;2022-10-26T11:10:33;1.95;;;1.25;;
40533;SDS011;26233;51.894;10.192;2022-10-26T11:13:05;1.10;;;0.95;;
40533;SDS011;26233;51.894;10.192;2022-10-26T11:15:42;1.48;;;1.02;;
40533;SDS011;26233;51.894;10.192;2022-10-26T11:18:15;1.00;;;0.90;;
40533;SDS011;26233;51.894;10.192;2022-10-26T11:20:52;2.42;;;1.00;;
40533;SDS011;26233;51.894;10.192;2022-10-26T11:23:30;1.42;;;0.85;;
40533;SDS011;26233;51.894;10.192;2022-10-26T11:26:03;2.05;;;1.10;;
40533;SDS011;26233;51.894;10.192;2022-10-26T11:28:38;3.63;;;1.27;;
40533;SDS011;26233;51.894;10.192;2022-10-26T11:31:12;1.48;;;1.20;;
40533;SDS011;26233;51.894;10.192;2022-10-26T11:33:58;2.35;;;1.02;;
40533;SDS011;26233;51.894;10.192;2022-10-26T11:36:35;0.98;;;0.90;;
40533;SDS011;26233;51.894;10.192;2022-10-26T11:39:07;2.00;;;1.00;;
40533;SDS011;26233;51.894;10.192;2022-10-26T11:41:42;1.30;;;0.90;;
40533;SDS011;26233;51.894;10.192;2022-10-26T11:44:16;1.88;;;0.95;;
40533;SDS011;26233;51.894;10.192;2022-10-26T11:46:48;1.88;;;1.05;;
40533;SDS011;26233;51.894;10.192;2022-10-26T11:49:23;1.00;;;0.90;;
40533;SDS011;26233;51.894;10.192;2022-10-26T11:52:01;1.35;;;1.00;;
40533;SDS011;26233;51.894;10.192;2022-10-26T11:54:34;1.80;;;1.00;;
40533;SDS011;26233;51.894;10.192;2022-10-26T11:57:08;1.20;;;1.10;;
40533;SDS011;26233;51.894;10.192;2022-10-26T11:59:38;1.10;;;0.77;;
40533;SDS011;26233;51.894;10.192;2022-10-26T12:02:13;1.10;;;0.85;;
40533;SDS011;26233;51.894;10.192;2022-10-26T12:04:44;1.80;;;1.00;;
40533;SDS011;26233;51.894;10.192;2022-10-26T12:07:19;1.40;;;1.00;;
40533;SDS011;26233;51.894;10.192;2022-10-26T12:09:51;1.20;;;1.02;;
40533;SDS011;26233;51.894;10.192;2022-10-26T12:12:23;1.52;;;1.05;;
40533;SDS011;26233;51.894;10.192;2022-10-26T12:14:58;1.20;;;1.10;;
40533;SDS011;26233;51.894;10.192;2022-10-26T12:17:41;1.10;;;1.00;;
40533;SDS011;26233;51.894;10.192;2022-10-26T12:20:21;1.27;;;1.17;;
40533;SDS011;26233;51.894;10.192;2022-10-26T12:23:20;2.08;;;1.10;;
40533;SDS011;26233;51.894;10.192;2022-10-26T12:25:48;1.50;;;1.20;;
40533;SDS011;26233;51.894;10.192;2022-10-26T12:34:10;1.58;;;1.10;;
40533;SDS011;26233;51.894;10.192;2022-10-26T12:36:50;2.30;;;1.30;;
40533;SDS011;26233;51.894;10.192;2022-10-26T12:39:37;1.20;;;1.10;;
40533;SDS011;26233;51.894;10.192;2022-10-26T12:42:09;2.92;;;1.30;;
40533;SDS011;26233;51.894;10.192;2022-10-26T12:45:00;1.55;;;1.05;;
40533;SDS011;26233;51.894;10.192;2022-10-26T12:48:00;1.90;;;1.20;;
40533;SDS011;26233;51.894;10.192;2022-10-26T12:50:30;2.78;;;1.20;;
40533;SDS011;26233;51.894;10.192;2022-10-26T12:52:58;1.55;;;1.10;;
40533;SDS011;26233;51.894;10.192;2022-10-26T12:58:45;1.58;;;1.10;;
40533;SDS011;26233;51.894;10.192;2022-10-26T13:04:46;1.20;;;1.10;;
40533;SDS011;26233;51.894;10.192;2022-10-26T13:07:47;2.80;;;1.30;;
40533;SDS011;26233;51.894;10.192;2022-10-26T13:10:20;1.13;;;1.00;;
40533;SDS011;26233;51.894;10.192;2022-10-26T13:12:52;2.63;;;1.33;;
40533;SDS011;26233;51.894;10.192;2022-10-26T13:15:22;1.55;;;1.15;;
40533;SDS011;26233;51.894;10.192;2022-10-26T13:17:57;1.35;;;1.25;;
40533;SDS011;26233;51.894;10.192;2022-10-26T13:20:28;2.03;;;1.17;;
40533;SDS011;26233;51.894;10.192;2022-10-26T13:22:58;1.13;;;1.02;;
40533;SDS011;26233;51.894;10.192;2022-10-26T13:25:28;1.30;;;1.00;;
40533;SDS011;26233;51.894;10.192;2022-10-26T13:27:57;1.25;;;1.00;;
40533;SDS011;26233;51.894;10.192;2022-10-26T13:33:22;1.58;;;1.05;;
40533;SDS011;26233;51.894;10.192;2022-10-26T13:35:55;1.58;;;1.17;;
40533;SDS011;26233;51.894;10.192;2022-10-26T13:38:26;1.35;;;1.20;;
40533;SDS011;26233;51.894;10.192;2022-10-26T13:41:01;3.15;;;1.63;;
40533;SDS011;26233;51.894;10.192;2022-10-26T13:43:42;1.67;;;1.30;;
40533;SDS011;26233;51.894;10.192;2022-10-26T13:46:18;2.25;;;1.63;;
40533;SDS011;26233;51.894;10.192;2022-10-26T13:48:51;1.42;;;1.20;;
40533;SDS011;26233;51.894;10.192;2022-10-26T13:51:29;3.15;;;1.30;;
40533;SDS011;26233;51.894;10.192;2022-10-26T13:54:06;1.52;;;1.30;;
40533;SDS011;26233;51.894;10.192;2022-10-26T13:56:54;2.63;;;1.40;;
40533;SDS011;26233;51.894;10.192;2022-10-26T13:59:30;1.40;;;1.23;;
40533;SDS011;26233;51.894;10.192;2022-10-26T14:02:04;2.42;;;1.58;;
40533;SDS011;26233;51.894;10.192;2022-10-26T14:04:33;1.75;;;1.35;;
40533;SDS011;26233;51.894;10.192;2022-10-26T14:07:00;1.38;;;1.27;;
40533;SDS011;26233;51.894;10.192;2022-10-26T14:09:27;2.65;;;1.40;;
40533;SDS011;26233;51.894;10.192;2022-10-26T14:11:58;1.67;;;1.33;;
40533;SDS011;26233;51.894;10.192;2022-10-26T14:14:27;1.35;;;1.25;;
40533;SDS011;26233;51.894;10.192;2022-10-26T14:16:57;2.92;;;1.52;;
40533;SDS011;26233;51.894;10.192;2022-10-26T14:19:29;1.70;;;1.50;;
40533;SDS011;26233;51.894;10.192;2022-10-26T14:21:59;1.75;;;1.50;;
40533;SDS011;26233;51.894;10.192;2022-10-26T14:24:27;1.80;;;1.30;;
40533;SDS011;26233;51.894;10.192;2022-10-26T14:26:57;2.15;;;1.48;;
40533;SDS011;26233;51.894;10.192;2022-10-26T14:29:25;1.45;;;1.20;;
40533;SDS011;26233;51.894;10.192;2022-10-26T14:31:57;1.48;;;1.30;;
40533;SDS011;26233;51.894;10.192;2022-10-26T14:34:24;2.38;;;1.73;;
40533;SDS011;26233;51.894;10.192;2022-10-26T14:36:53;1.83;;;1.42;;
40533;SDS011;26233;51.894;10.192;2022-10-26T14:39:28;4.10;;;1.63;;
40533;SDS011;26233;51.894;10.192;2022-10-26T14:42:00;1.98;;;1.50;;
40533;SDS011;26233;51.894;10.192;2022-10-26T14:44:36;3.15;;;1.38;;
40533;SDS011;26233;51.894;10.192;2022-10-26T14:47:03;2.20;;;1.67;;
40533;SDS011;26233;51.894;10.192;2022-10-26T14:49:43;1.95;;;1.60;;
40533;SDS011;26233;51.894;10.192;2022-10-26T14:52:13;1.80;;;1.60;;
40533;SDS011;26233;51.894;10.192;2022-10-26T14:54:55;1.75;;;1.50;;
40533;SDS011;26233;51.894;10.192;2022-10-26T14:57:29;1.60;;;1.50;;
40533;SDS011;26233;51.894;10.192;2022-10-26T15:00:04;1.80;;;1.55;;
40533;SDS011;26233;51.894;10.192;2022-10-26T15:02:40;1.45;;;1.35;;
40533;SDS011;26233;51.894;10.192;2022-10-26T15:05:20;2.05;;;1.60;;
40533;SDS011;26233;51.894;10.192;2022-10-26T15:07:53;1.60;;;1.50;;
40533;SDS011;26233;51.894;10.192;2022-10-26T15:13:24;2.30;;;1.65;;
40533;SDS011;26233;51.894;10.192;2022-10-26T15:15:56;1.55;;;1.42;;
40533;SDS011;26233;51.894;10.192;2022-10-26T15:18:34;1.58;;;1.40;;
40533;SDS011;26233;51.894;10.192;2022-10-26T15:21:02;2.08;;;1.48;;
40533;SDS011;26233;51.894;10.192;2022-10-26T15:23:44;2.20;;;1.52;;
40533;SDS011;26233;51.894;10.192;2022-10-26T15:26:12;1.83;;;1.42;;